sensor_id;sensor_type;location;lat;lon;timestamp;temperature;humidity
27026;DHT22;14565;48.626;8.978;2023-07-31T00:00:34;14.20;99.90
27026;DHT22;14565;48.626;8.978;2023-07-31T00:03:00;14.10;99.90
27026;DHT22;14565;48.626;8.978;2023-07-31T00:05:26;14.10;99.90
27026;DHT22;14565;48.626;8.978;2023-07-31T00:07:51;14.00;99.90
27026;DHT22;14565;48.626;8.978;2023-07-31T00:10:17;13.90;99.90
27026;DHT22;14565;48.626;8.978;2023-07-31T00:12:44;14.00;99.90
27026;DHT22;14565;48.626;8.978;2023-07-31T00:15:10;14.00;99.90
27026;DHT22;14565;48.626;8.978;2023-07-31T00:17:36;14.00;99.90
27026;DHT22;14565;48.626;8.978;2023-07-31T00:20:02;14.00;99.90
27026;DHT22;14565;48.626;8.978;2023-07-31T00:22:28;13.90;99.90
27026;DHT22;14565;48.626;8.978;2023-07-31T00:24:54;14.00;99.90
27026;DHT22;14565;48.626;8.978;2023-07-31T00:27:20;14.00;99.90
27026;DHT22;14565;48.626;8.978;2023-07-31T00:29:45;13.90;99.90
27026;DHT22;14565;48.626;8.978;2023-07-31T00:32:11;13.80;99.90
27026;DHT22;14565;48.626;8.978;2023-07-31T00:34:37;13.70;99.90
27026;DHT22;14565;48.626;8.978;2023-07-31T00:37:03;13.70;99.90
27026;DHT22;14565;48.626;8.978;2023-07-31T00:39:30;13.70;99.90
27026;DHT22;14565;48.626;8.978;2023-07-31T00:41:55;13.70;99.90
27026;DHT22;14565;48.626;8.978;2023-07-31T00:44:21;13.70;99.90
27026;DHT22;14565;48.626;8.978;2023-07-31T00:46:46;13.60;99.90
27026;DHT22;14565;48.626;8.978;2023-07-31T00:49:12;13.60;99.90
27026;DHT22;14565;48.626;8.978;2023-07-31T00:51:38;13.60;99.90
27026;DHT22;14565;48.626;8.978;2023-07-31T00:54:05;13.60;99.90
27026;DHT22;14565;48.626;8.978;2023-07-31T00:56:31;13.60;99.90
27026;DHT22;14565;48.626;8.978;2023-07-31T00:58:57;13.60;99.90
27026;DHT22;14565;48.626;8.978;2023-07-31T01:01:23;13.70;99.90
27026;DHT22;14565;48.626;8.978;2023-07-31T01:03:50;13.70;99.90
27026;DHT22;14565;48.626;8.978;2023-07-31T01:06:42;13.70;99.90
27026;DHT22;14565;48.626;8.978;2023-07-31T01:09:30;13.70;99.90
27026;DHT22;14565;48.626;8.978;2023-07-31T01:12:00;13.80;99.90
27026;DHT22;14565;48.626;8.978;2023-07-31T01:14:27;13.80;99.90
27026;DHT22;14565;48.626;8.978;2023-07-31T01:16:52;13.80;99.90
27026;DHT22;14565;48.626;8.978;2023-07-31T01:19:23;13.80;99.90
27026;DHT22;14565;48.626;8.978;2023-07-31T01:27:34;13.80;99.90
27026;DHT22;14565;48.626;8.978;2023-07-31T01:30:17;13.80;99.90
27026;DHT22;14565;48.626;8.978;2023-07-31T01:32:47;13.80;99.90
27026;DHT22;14565;48.626;8.978;2023-07-31T01:35:14;13.70;99.90
27026;DHT22;14565;48.626;8.978;2023-07-31T01:37:40;13.70;99.90
27026;DHT22;14565;48.626;8.978;2023-07-31T01:40:06;13.60;99.90
27026;DHT22;14565;48.626;8.978;2023-07-31T01:42:33;13.70;99.90
27026;DHT22;14565;48.626;8.978;2023-07-31T01:44:59;13.70;99.90
27026;DHT22;14565;48.626;8.978;2023-07-31T01:47:24;13.70;99.90
27026;DHT22;14565;48.626;8.978;2023-07-31T01:49:50;13.70;99.90
27026;DHT22;14565;48.626;8.978;2023-07-31T01:52:15;13.70;99.90
27026;DHT22;14565;48.626;8.978;2023-07-31T01:54:41;13.70;99.90
27026;DHT22;14565;48.626;8.978;2023-07-31T01:57:07;13.60;99.90
27026;DHT22;14565;48.626;8.978;2023-07-31T01:59:32;13.60;99.90
27026;DHT22;14565;48.626;8.978;2023-07-31T02:01:58;13.60;99.90
27026;DHT22;14565;48.626;8.978;2023-07-31T02:04:24;13.60;99.90
27026;DHT22;14565;48.626;8.978;2023-07-31T02:06:49;13.60;99.90
27026;DHT22;14565;48.626;8.978;2023-07-31T02:09:15;13.40;99.90
27026;DHT22;14565;48.626;8.978;2023-07-31T02:11:40;13.50;99.90
27026;DHT22;14565;48.626;8.978;2023-07-31T02:14:07;13.40;99.90
27026;DHT22;14565;48.626;8.978;2023-07-31T02:16:33;13.40;99.90
27026;DHT22;14565;48.626;8.978;2023-07-31T02:19:00;13.30;99.90
27026;DHT22;14565;48.626;8.978;2023-07-31T02:21:25;13.40;99.90
27026;DHT22;14565;48.626;8.978;2023-07-31T02:23:51;13.30;99.90
27026;DHT22;14565;48.626;8.978;2023-07-31T02:26:17;13.30;99.90
27026;DHT22;14565;48.626;8.978;2023-07-31T02:28:43;13.30;99.90
27026;DHT22;14565;48.626;8.978;2023-07-31T02:31:08;13.20;99.90
27026;DHT22;14565;48.626;8.978;2023-07-31T02:33:34;13.20;99.90
27026;DHT22;14565;48.626;8.978;2023-07-31T02:36:00;13.20;99.90
27026;DHT22;14565;48.626;8.978;2023-07-31T02:38:26;13.20;99.90
27026;DHT22;14565;48.626;8.978;2023-07-31T02:40:53;13.20;99.90
27026;DHT22;14565;48.626;8.978;2023-07-31T02:43:19;13.20;99.90
27026;DHT22;14565;48.626;8.978;2023-07-31T02:45:44;13.10;99.90
27026;DHT22;14565;48.626;8.978;2023-07-31T02:48:10;13.20;99.90
27026;DHT22;14565;48.626;8.978;2023-07-31T02:50:36;13.20;99.90
27026;DHT22;14565;48.626;8.978;2023-07-31T02:53:01;13.20;99.90
27026;DHT22;14565;48.626;8.978;2023-07-31T02:55:27;13.30;99.90
27026;DHT22;14565;48.626;8.978;2023-07-31T02:57:53;13.30;99.90
27026;DHT22;14565;48.626;8.978;2023-07-31T03:00:19;13.30;99.90
27026;DHT22;14565;48.626;8.978;2023-07-31T03:02:45;13.30;99.90
27026;DHT22;14565;48.626;8.978;2023-07-31T03:05:11;13.30;99.90
27026;DHT22;14565;48.626;8.978;2023-07-31T03:07:36;13.40;99.90
27026;DHT22;14565;48.626;8.978;2023-07-31T03:10:03;13.40;99.90
27026;DHT22;14565;48.626;8.978;2023-07-31T03:12:29;13.50;99.90
27026;DHT22;14565;48.626;8.978;2023-07-31T03:14:54;13.50;99.90
27026;DHT22;14565;48.626;8.978;2023-07-31T03:17:21;13.50;99.90
27026;DHT22;14565;48.626;8.978;2023-07-31T03:19:46;13.40;99.90
27026;DHT22;14565;48.626;8.978;2023-07-31T03:22:12;13.40;99.90
27026;DHT22;14565;48.626;8.978;2023-07-31T03:24:37;13.40;99.90
27026;DHT22;14565;48.626;8.978;2023-07-31T03:27:03;13.40;99.90
27026;DHT22;14565;48.626;8.978;2023-07-31T03:29:29;13.40;99.90
27026;DHT22;14565;48.626;8.978;2023-07-31T03:31:55;13.40;99.90
27026;DHT22;14565;48.626;8.978;2023-07-31T03:34:21;13.50;99.90
27026;DHT22;14565;48.626;8.978;2023-07-31T03:36:47;13.50;99.90
27026;DHT22;14565;48.626;8.978;2023-07-31T03:39:12;13.60;99.90
27026;DHT22;14565;48.626;8.978;2023-07-31T03:41:38;13.60;99.90
27026;DHT22;14565;48.626;8.978;2023-07-31T03:44:05;13.60;99.90
27026;DHT22;14565;48.626;8.978;2023-07-31T03:46:31;13.50;99.90
27026;DHT22;14565;48.626;8.978;2023-07-31T03:48:57;13.50;99.90
27026;DHT22;14565;48.626;8.978;2023-07-31T03:51:22;13.50;99.90
27026;DHT22;14565;48.626;8.978;2023-07-31T03:53:48;13.60;99.90
27026;DHT22;14565;48.626;8.978;2023-07-31T03:56:15;13.60;99.90
27026;DHT22;14565;48.626;8.978;2023-07-31T03:58:41;13.70;99.90
27026;DHT22;14565;48.626;8.978;2023-07-31T04:01:07;13.80;99.90
27026;DHT22;14565;48.626;8.978;2023-07-31T04:03:33;13.80;99.90
27026;DHT22;14565;48.626;8.978;2023-07-31T04:05:59;13.80;99.90
27026;DHT22;14565;48.626;8.978;2023-07-31T04:08:25;13.90;99.90
27026;DHT22;14565;48.626;8.978;2023-07-31T04:10:51;13.90;99.90
27026;DHT22;14565;48.626;8.978;2023-07-31T04:13:16;14.00;99.90
27026;DHT22;14565;48.626;8.978;2023-07-31T04:15:42;13.90;99.90
27026;DHT22;14565;48.626;8.978;2023-07-31T04:18:07;13.90;99.90
27026;DHT22;14565;48.626;8.978;2023-07-31T04:20:33;14.20;99.90
27026;DHT22;14565;48.626;8.978;2023-07-31T04:23:00;14.10;99.90
27026;DHT22;14565;48.626;8.978;2023-07-31T04:25:25;14.10;99.90
27026;DHT22;14565;48.626;8.978;2023-07-31T04:27:52;14.20;99.90
27026;DHT22;14565;48.626;8.978;2023-07-31T04:30:17;14.20;99.90
27026;DHT22;14565;48.626;8.978;2023-07-31T04:32:43;14.30;99.90
27026;DHT22;14565;48.626;8.978;2023-07-31T04:35:08;14.40;99.90
27026;DHT22;14565;48.626;8.978;2023-07-31T04:37:34;14.50;99.90
27026;DHT22;14565;48.626;8.978;2023-07-31T04:40:00;14.60;99.90
27026;DHT22;14565;48.626;8.978;2023-07-31T04:42:26;14.60;99.90
27026;DHT22;14565;48.626;8.978;2023-07-31T04:44:52;14.70;99.90
27026;DHT22;14565;48.626;8.978;2023-07-31T04:47:19;14.60;99.90
27026;DHT22;14565;48.626;8.978;2023-07-31T04:49:45;14.70;99.90
27026;DHT22;14565;48.626;8.978;2023-07-31T04:52:10;14.60;99.90
27026;DHT22;14565;48.626;8.978;2023-07-31T04:54:36;14.60;99.90
27026;DHT22;14565;48.626;8.978;2023-07-31T04:57:01;14.60;99.90
27026;DHT22;14565;48.626;8.978;2023-07-31T04:59:27;14.70;99.90
27026;DHT22;14565;48.626;8.978;2023-07-31T05:01:53;14.70;99.90
27026;DHT22;14565;48.626;8.978;2023-07-31T05:04:19;14.70;99.90
27026;DHT22;14565;48.626;8.978;2023-07-31T05:06:44;14.70;99.90
27026;DHT22;14565;48.626;8.978;2023-07-31T05:09:10;14.80;99.90
27026;DHT22;14565;48.626;8.978;2023-07-31T05:11:36;14.70;99.90
27026;DHT22;14565;48.626;8.978;2023-07-31T05:14:01;14.80;99.90
27026;DHT22;14565;48.626;8.978;2023-07-31T05:16:27;14.70;99.90
27026;DHT22;14565;48.626;8.978;2023-07-31T05:18:53;14.70;99.90
27026;DHT22;14565;48.626;8.978;2023-07-31T05:21:18;14.80;99.90
27026;DHT22;14565;48.626;8.978;2023-07-31T05:23:44;14.80;99.90
27026;DHT22;14565;48.626;8.978;2023-07-31T05:26:10;14.80;99.90
27026;DHT22;14565;48.626;8.978;2023-07-31T05:28:36;14.80;99.90
27026;DHT22;14565;48.626;8.978;2023-07-31T05:31:03;15.00;99.90
27026;DHT22;14565;48.626;8.978;2023-07-31T05:33:28;15.00;99.90
27026;DHT22;14565;48.626;8.978;2023-07-31T05:35:54;15.10;99.90
27026;DHT22;14565;48.626;8.978;2023-07-31T05:38:20;15.10;99.90
27026;DHT22;14565;48.626;8.978;2023-07-31T05:40:46;15.20;99.90
27026;DHT22;14565;48.626;8.978;2023-07-31T05:43:12;15.30;99.90
27026;DHT22;14565;48.626;8.978;2023-07-31T05:45:39;15.70;99.90
27026;DHT22;14565;48.626;8.978;2023-07-31T05:48:05;15.80;99.90
27026;DHT22;14565;48.626;8.978;2023-07-31T05:50:31;15.80;99.90
27026;DHT22;14565;48.626;8.978;2023-07-31T05:52:58;16.00;99.90
27026;DHT22;14565;48.626;8.978;2023-07-31T05:55:24;15.90;99.90
27026;DHT22;14565;48.626;8.978;2023-07-31T05:57:52;15.90;99.90
27026;DHT22;14565;48.626;8.978;2023-07-31T06:00:18;15.80;99.90
27026;DHT22;14565;48.626;8.978;2023-07-31T06:02:45;15.80;99.90
27026;DHT22;14565;48.626;8.978;2023-07-31T06:05:10;15.80;99.90
27026;DHT22;14565;48.626;8.978;2023-07-31T06:07:36;15.80;99.90
27026;DHT22;14565;48.626;8.978;2023-07-31T06:10:02;15.80;99.90
27026;DHT22;14565;48.626;8.978;2023-07-31T06:12:34;15.80;99.90
27026;DHT22;14565;48.626;8.978;2023-07-31T06:15:00;15.80;99.90
27026;DHT22;14565;48.626;8.978;2023-07-31T06:17:26;15.80;99.90
27026;DHT22;14565;48.626;8.978;2023-07-31T06:19:52;15.80;99.90
27026;DHT22;14565;48.626;8.978;2023-07-31T06:22:18;15.80;99.90
27026;DHT22;14565;48.626;8.978;2023-07-31T06:24:44;16.00;99.90
27026;DHT22;14565;48.626;8.978;2023-07-31T06:27:10;16.00;99.90
27026;DHT22;14565;48.626;8.978;2023-07-31T06:29:37;16.20;99.90
27026;DHT22;14565;48.626;8.978;2023-07-31T06:32:03;16.70;99.90
27026;DHT22;14565;48.626;8.978;2023-07-31T06:34:29;17.00;99.90
27026;DHT22;14565;48.626;8.978;2023-07-31T06:36:56;17.20;99.90
27026;DHT22;14565;48.626;8.978;2023-07-31T06:39:22;18.70;99.90
27026;DHT22;14565;48.626;8.978;2023-07-31T06:41:48;18.70;99.90
27026;DHT22;14565;48.626;8.978;2023-07-31T06:44:14;18.30;99.90
27026;DHT22;14565;48.626;8.978;2023-07-31T06:46:42;18.50;99.90
27026;DHT22;14565;48.626;8.978;2023-07-31T06:49:08;18.10;99.90
27026;DHT22;14565;48.626;8.978;2023-07-31T06:51:34;18.60;99.90
27026;DHT22;14565;48.626;8.978;2023-07-31T06:54:01;18.30;99.90
27026;DHT22;14565;48.626;8.978;2023-07-31T06:56:27;18.20;99.90
27026;DHT22;14565;48.626;8.978;2023-07-31T06:58:53;18.00;99.90
27026;DHT22;14565;48.626;8.978;2023-07-31T07:01:19;17.90;99.90
27026;DHT22;14565;48.626;8.978;2023-07-31T07:03:45;17.60;99.90
27026;DHT22;14565;48.626;8.978;2023-07-31T07:06:11;17.70;99.90
27026;DHT22;14565;48.626;8.978;2023-07-31T07:08:38;17.80;99.90
27026;DHT22;14565;48.626;8.978;2023-07-31T07:11:05;18.10;99.90
27026;DHT22;14565;48.626;8.978;2023-07-31T07:13:32;18.60;99.90
27026;DHT22;14565;48.626;8.978;2023-07-31T07:15:57;18.60;99.90
27026;DHT22;14565;48.626;8.978;2023-07-31T07:18:23;18.50;99.90
27026;DHT22;14565;48.626;8.978;2023-07-31T07:20:51;18.00;99.90
27026;DHT22;14565;48.626;8.978;2023-07-31T07:23:18;17.60;99.90
27026;DHT22;14565;48.626;8.978;2023-07-31T07:25:45;17.70;99.90
27026;DHT22;14565;48.626;8.978;2023-07-31T07:28:11;17.80;99.90
27026;DHT22;14565;48.626;8.978;2023-07-31T07:30:38;17.70;99.90
27026;DHT22;14565;48.626;8.978;2023-07-31T07:33:04;17.90;99.90
27026;DHT22;14565;48.626;8.978;2023-07-31T07:35:30;17.60;99.90
27026;DHT22;14565;48.626;8.978;2023-07-31T07:37:55;17.40;99.90
27026;DHT22;14565;48.626;8.978;2023-07-31T07:40:22;17.50;99.90
27026;DHT22;14565;48.626;8.978;2023-07-31T07:42:49;17.80;99.90
27026;DHT22;14565;48.626;8.978;2023-07-31T07:45:15;18.60;99.90
27026;DHT22;14565;48.626;8.978;2023-07-31T07:47:41;18.90;99.90
27026;DHT22;14565;48.626;8.978;2023-07-31T07:50:08;19.40;99.90
27026;DHT22;14565;48.626;8.978;2023-07-31T07:52:34;18.90;99.90
27026;DHT22;14565;48.626;8.978;2023-07-31T07:55:00;18.90;99.90
27026;DHT22;14565;48.626;8.978;2023-07-31T07:57:26;18.70;99.90
27026;DHT22;14565;48.626;8.978;2023-07-31T07:59:52;19.40;99.90
27026;DHT22;14565;48.626;8.978;2023-07-31T08:02:18;20.20;99.90
27026;DHT22;14565;48.626;8.978;2023-07-31T08:04:44;20.30;99.90
27026;DHT22;14565;48.626;8.978;2023-07-31T08:07:13;20.20;99.90
27026;DHT22;14565;48.626;8.978;2023-07-31T08:09:39;20.30;99.90
27026;DHT22;14565;48.626;8.978;2023-07-31T08:12:06;20.20;99.90
27026;DHT22;14565;48.626;8.978;2023-07-31T08:14:32;19.90;99.90
27026;DHT22;14565;48.626;8.978;2023-07-31T08:16:57;20.30;99.90
27026;DHT22;14565;48.626;8.978;2023-07-31T08:19:23;19.90;99.90
27026;DHT22;14565;48.626;8.978;2023-07-31T08:21:49;19.90;99.90
27026;DHT22;14565;48.626;8.978;2023-07-31T08:24:15;19.80;99.90
27026;DHT22;14565;48.626;8.978;2023-07-31T08:26:41;19.70;99.90
27026;DHT22;14565;48.626;8.978;2023-07-31T08:29:07;19.80;99.90
27026;DHT22;14565;48.626;8.978;2023-07-31T08:31:32;20.30;99.90
27026;DHT22;14565;48.626;8.978;2023-07-31T08:33:58;20.70;99.90
27026;DHT22;14565;48.626;8.978;2023-07-31T08:36:25;20.30;99.90
27026;DHT22;14565;48.626;8.978;2023-07-31T08:38:50;19.80;99.90
27026;DHT22;14565;48.626;8.978;2023-07-31T08:41:17;19.40;99.90
27026;DHT22;14565;48.626;8.978;2023-07-31T08:43:45;19.90;99.90
27026;DHT22;14565;48.626;8.978;2023-07-31T08:46:11;19.90;99.90
27026;DHT22;14565;48.626;8.978;2023-07-31T08:48:37;20.50;99.90
27026;DHT22;14565;48.626;8.978;2023-07-31T08:51:04;20.60;99.90
27026;DHT22;14565;48.626;8.978;2023-07-31T08:53:30;20.60;99.90
27026;DHT22;14565;48.626;8.978;2023-07-31T08:55:56;19.90;99.90
27026;DHT22;14565;48.626;8.978;2023-07-31T08:58:24;19.90;99.90
27026;DHT22;14565;48.626;8.978;2023-07-31T09:00:51;20.10;99.90
27026;DHT22;14565;48.626;8.978;2023-07-31T09:03:18;20.80;99.90
27026;DHT22;14565;48.626;8.978;2023-07-31T09:05:45;21.30;99.90
27026;DHT22;14565;48.626;8.978;2023-07-31T09:08:19;21.20;99.90
27026;DHT22;14565;48.626;8.978;2023-07-31T09:10:46;21.90;99.90
27026;DHT22;14565;48.626;8.978;2023-07-31T09:13:13;21.90;99.90
27026;DHT22;14565;48.626;8.978;2023-07-31T09:15:40;21.70;99.90
27026;DHT22;14565;48.626;8.978;2023-07-31T09:18:08;21.60;99.90
27026;DHT22;14565;48.626;8.978;2023-07-31T09:20:34;21.50;99.90
27026;DHT22;14565;48.626;8.978;2023-07-31T09:23:11;21.60;99.90
27026;DHT22;14565;48.626;8.978;2023-07-31T09:25:38;21.40;99.90
27026;DHT22;14565;48.626;8.978;2023-07-31T09:28:08;21.20;99.90
27026;DHT22;14565;48.626;8.978;2023-07-31T09:30:48;21.50;99.90
27026;DHT22;14565;48.626;8.978;2023-07-31T09:33:14;21.50;99.90
27026;DHT22;14565;48.626;8.978;2023-07-31T09:35:47;20.70;99.90
27026;DHT22;14565;48.626;8.978;2023-07-31T09:38:16;20.80;99.90
27026;DHT22;14565;48.626;8.978;2023-07-31T09:40:48;21.10;99.90
27026;DHT22;14565;48.626;8.978;2023-07-31T09:43:25;21.00;99.90
27026;DHT22;14565;48.626;8.978;2023-07-31T09:45:59;21.00;99.90
27026;DHT22;14565;48.626;8.978;2023-07-31T09:48:25;21.40;99.90
27026;DHT22;14565;48.626;8.978;2023-07-31T09:50:54;21.70;99.90
27026;DHT22;14565;48.626;8.978;2023-07-31T09:53:28;21.90;99.90
27026;DHT22;14565;48.626;8.978;2023-07-31T09:55:55;21.70;99.90
27026;DHT22;14565;48.626;8.978;2023-07-31T09:58:23;22.10;99.90
27026;DHT22;14565;48.626;8.978;2023-07-31T10:00:50;22.30;99.90
27026;DHT22;14565;48.626;8.978;2023-07-31T10:03:16;22.50;99.90
27026;DHT22;14565;48.626;8.978;2023-07-31T10:05:48;22.60;99.90
27026;DHT22;14565;48.626;8.978;2023-07-31T10:08:16;22.70;99.90
27026;DHT22;14565;48.626;8.978;2023-07-31T10:10:44;23.20;99.90
27026;DHT22;14565;48.626;8.978;2023-07-31T10:13:11;23.20;99.90
27026;DHT22;14565;48.626;8.978;2023-07-31T10:15:37;23.40;99.90
27026;DHT22;14565;48.626;8.978;2023-07-31T10:18:06;23.40;99.90
27026;DHT22;14565;48.626;8.978;2023-07-31T10:20:31;22.70;99.50
27026;DHT22;14565;48.626;8.978;2023-07-31T10:22:57;22.40;99.90
27026;DHT22;14565;48.626;8.978;2023-07-31T10:25:26;22.40;99.90
27026;DHT22;14565;48.626;8.978;2023-07-31T10:27:53;22.50;99.90
27026;DHT22;14565;48.626;8.978;2023-07-31T10:30:22;22.50;99.90
27026;DHT22;14565;48.626;8.978;2023-07-31T10:32:51;21.90;99.90
27026;DHT22;14565;48.626;8.978;2023-07-31T10:35:20;21.50;99.90
27026;DHT22;14565;48.626;8.978;2023-07-31T10:37:51;21.80;99.90
27026;DHT22;14565;48.626;8.978;2023-07-31T10:40:25;22.00;99.90
27026;DHT22;14565;48.626;8.978;2023-07-31T10:42:55;21.80;99.90
27026;DHT22;14565;48.626;8.978;2023-07-31T10:48:00;22.00;99.90
27026;DHT22;14565;48.626;8.978;2023-07-31T10:50:26;22.00;99.90
27026;DHT22;14565;48.626;8.978;2023-07-31T10:52:54;22.20;99.90
27026;DHT22;14565;48.626;8.978;2023-07-31T10:55:42;22.00;99.90
27026;DHT22;14565;48.626;8.978;2023-07-31T10:58:13;22.20;99.90
27026;DHT22;14565;48.626;8.978;2023-07-31T11:00:43;22.20;99.90
27026;DHT22;14565;48.626;8.978;2023-07-31T11:03:12;22.20;99.90
27026;DHT22;14565;48.626;8.978;2023-07-31T11:08:29;21.70;99.90
27026;DHT22;14565;48.626;8.978;2023-07-31T11:13:30;22.30;99.90
27026;DHT22;14565;48.626;8.978;2023-07-31T11:15:56;22.30;99.90
27026;DHT22;14565;48.626;8.978;2023-07-31T11:18:22;21.70;99.90
27026;DHT22;14565;48.626;8.978;2023-07-31T11:20:47;21.70;99.90
27026;DHT22;14565;48.626;8.978;2023-07-31T11:23:17;21.60;99.90
27026;DHT22;14565;48.626;8.978;2023-07-31T11:25:43;21.70;99.90
27026;DHT22;14565;48.626;8.978;2023-07-31T11:28:11;21.80;99.90
27026;DHT22;14565;48.626;8.978;2023-07-31T11:30:38;21.70;99.90
27026;DHT22;14565;48.626;8.978;2023-07-31T11:33:05;21.80;99.90
27026;DHT22;14565;48.626;8.978;2023-07-31T11:35:34;21.60;99.90
27026;DHT22;14565;48.626;8.978;2023-07-31T11:38:01;21.70;99.90
27026;DHT22;14565;48.626;8.978;2023-07-31T11:40:27;21.60;99.90
27026;DHT22;14565;48.626;8.978;2023-07-31T11:43:04;21.70;99.90
27026;DHT22;14565;48.626;8.978;2023-07-31T11:45:30;21.70;99.90
27026;DHT22;14565;48.626;8.978;2023-07-31T11:47:56;21.90;99.90
27026;DHT22;14565;48.626;8.978;2023-07-31T11:50:23;22.00;99.90
27026;DHT22;14565;48.626;8.978;2023-07-31T11:52:57;22.00;99.90
27026;DHT22;14565;48.626;8.978;2023-07-31T11:55:24;21.90;99.90
27026;DHT22;14565;48.626;8.978;2023-07-31T11:57:51;22.30;99.90
27026;DHT22;14565;48.626;8.978;2023-07-31T12:00:19;22.50;99.90
27026;DHT22;14565;48.626;8.978;2023-07-31T12:02:45;22.30;99.90
27026;DHT22;14565;48.626;8.978;2023-07-31T12:05:12;21.80;99.90
27026;DHT22;14565;48.626;8.978;2023-07-31T12:07:50;21.70;99.90
27026;DHT22;14565;48.626;8.978;2023-07-31T12:10:42;21.70;99.90
27026;DHT22;14565;48.626;8.978;2023-07-31T12:13:10;21.50;99.90
27026;DHT22;14565;48.626;8.978;2023-07-31T12:15:43;21.50;99.90
27026;DHT22;14565;48.626;8.978;2023-07-31T12:18:42;21.70;99.90
27026;DHT22;14565;48.626;8.978;2023-07-31T12:21:03;22.10;99.90
27026;DHT22;14565;48.626;8.978;2023-07-31T12:23:31;22.40;99.90
27026;DHT22;14565;48.626;8.978;2023-07-31T12:26:08;22.60;99.90
27026;DHT22;14565;48.626;8.978;2023-07-31T12:28:36;22.40;99.90
27026;DHT22;14565;48.626;8.978;2023-07-31T12:31:04;22.30;99.90
27026;DHT22;14565;48.626;8.978;2023-07-31T12:33:31;22.30;99.90
27026;DHT22;14565;48.626;8.978;2023-07-31T12:35:57;22.80;99.90
27026;DHT22;14565;48.626;8.978;2023-07-31T12:38:23;23.10;99.90
27026;DHT22;14565;48.626;8.978;2023-07-31T12:40:49;23.70;99.90
27026;DHT22;14565;48.626;8.978;2023-07-31T12:43:15;23.90;99.90
27026;DHT22;14565;48.626;8.978;2023-07-31T12:45:41;22.90;99.90
27026;DHT22;14565;48.626;8.978;2023-07-31T12:48:06;22.90;99.90
27026;DHT22;14565;48.626;8.978;2023-07-31T12:50:32;22.80;99.90
27026;DHT22;14565;48.626;8.978;2023-07-31T12:52:58;22.70;99.90
27026;DHT22;14565;48.626;8.978;2023-07-31T12:55:23;22.90;99.90
27026;DHT22;14565;48.626;8.978;2023-07-31T12:57:50;23.20;99.90
27026;DHT22;14565;48.626;8.978;2023-07-31T13:00:16;23.40;99.90
27026;DHT22;14565;48.626;8.978;2023-07-31T13:02:42;23.60;99.90
27026;DHT22;14565;48.626;8.978;2023-07-31T13:05:08;23.60;99.90
27026;DHT22;14565;48.626;8.978;2023-07-31T13:07:34;23.70;99.90
27026;DHT22;14565;48.626;8.978;2023-07-31T13:10:00;23.40;99.90
27026;DHT22;14565;48.626;8.978;2023-07-31T13:12:25;23.10;99.90
27026;DHT22;14565;48.626;8.978;2023-07-31T13:14:51;23.30;99.90
27026;DHT22;14565;48.626;8.978;2023-07-31T13:17:17;23.10;99.90
27026;DHT22;14565;48.626;8.978;2023-07-31T13:19:43;23.00;99.90
27026;DHT22;14565;48.626;8.978;2023-07-31T13:22:09;22.90;99.90
27026;DHT22;14565;48.626;8.978;2023-07-31T13:24:34;23.00;99.90
27026;DHT22;14565;48.626;8.978;2023-07-31T13:27:00;23.00;99.90
27026;DHT22;14565;48.626;8.978;2023-07-31T13:29:26;23.10;99.90
27026;DHT22;14565;48.626;8.978;2023-07-31T13:31:52;23.40;99.90
27026;DHT22;14565;48.626;8.978;2023-07-31T13:34:18;23.20;99.90
27026;DHT22;14565;48.626;8.978;2023-07-31T13:36:44;23.10;99.90
27026;DHT22;14565;48.626;8.978;2023-07-31T13:39:09;23.10;99.90
27026;DHT22;14565;48.626;8.978;2023-07-31T13:41:35;23.10;99.90
27026;DHT22;14565;48.626;8.978;2023-07-31T13:44:00;22.60;99.90
27026;DHT22;14565;48.626;8.978;2023-07-31T13:46:26;22.50;99.90
27026;DHT22;14565;48.626;8.978;2023-07-31T13:48:52;22.50;99.90
27026;DHT22;14565;48.626;8.978;2023-07-31T13:51:23;22.40;99.90
27026;DHT22;14565;48.626;8.978;2023-07-31T13:53:49;22.50;99.90
27026;DHT22;14565;48.626;8.978;2023-07-31T13:56:15;22.30;99.90
27026;DHT22;14565;48.626;8.978;2023-07-31T13:58:40;22.50;99.90
27026;DHT22;14565;48.626;8.978;2023-07-31T14:01:06;22.60;99.90
27026;DHT22;14565;48.626;8.978;2023-07-31T14:03:32;22.40;99.90
27026;DHT22;14565;48.626;8.978;2023-07-31T14:05:57;22.40;99.90
27026;DHT22;14565;48.626;8.978;2023-07-31T14:08:23;22.30;99.90
27026;DHT22;14565;48.626;8.978;2023-07-31T14:10:49;22.30;99.90
27026;DHT22;14565;48.626;8.978;2023-07-31T14:13:14;22.40;99.90
27026;DHT22;14565;48.626;8.978;2023-07-31T14:15:42;22.50;99.90
27026;DHT22;14565;48.626;8.978;2023-07-31T14:18:11;22.60;99.90
27026;DHT22;14565;48.626;8.978;2023-07-31T14:20:36;22.50;99.90
27026;DHT22;14565;48.626;8.978;2023-07-31T14:23:02;22.50;99.90
27026;DHT22;14565;48.626;8.978;2023-07-31T14:25:28;22.40;99.90
27026;DHT22;14565;48.626;8.978;2023-07-31T14:27:54;22.30;99.90
27026;DHT22;14565;48.626;8.978;2023-07-31T14:30:20;22.50;99.90
27026;DHT22;14565;48.626;8.978;2023-07-31T14:32:46;22.40;99.90
27026;DHT22;14565;48.626;8.978;2023-07-31T14:35:12;22.10;99.90
27026;DHT22;14565;48.626;8.978;2023-07-31T14:37:39;22.30;99.90
27026;DHT22;14565;48.626;8.978;2023-07-31T14:40:05;22.10;99.90
27026;DHT22;14565;48.626;8.978;2023-07-31T14:42:31;22.50;99.90
27026;DHT22;14565;48.626;8.978;2023-07-31T14:44:57;22.40;99.90
27026;DHT22;14565;48.626;8.978;2023-07-31T14:47:22;22.30;99.90
27026;DHT22;14565;48.626;8.978;2023-07-31T14:49:48;22.50;99.90
27026;DHT22;14565;48.626;8.978;2023-07-31T14:52:14;22.30;99.90
27026;DHT22;14565;48.626;8.978;2023-07-31T14:54:40;22.20;99.90
27026;DHT22;14565;48.626;8.978;2023-07-31T14:57:06;22.40;99.90
27026;DHT22;14565;48.626;8.978;2023-07-31T14:59:31;22.60;99.90
27026;DHT22;14565;48.626;8.978;2023-07-31T15:01:57;22.40;99.90
27026;DHT22;14565;48.626;8.978;2023-07-31T15:04:22;22.70;99.90
27026;DHT22;14565;48.626;8.978;2023-07-31T15:06:49;22.70;99.90
27026;DHT22;14565;48.626;8.978;2023-07-31T15:09:15;22.90;99.90
27026;DHT22;14565;48.626;8.978;2023-07-31T15:11:40;22.70;99.90
27026;DHT22;14565;48.626;8.978;2023-07-31T15:14:06;22.50;99.90
27026;DHT22;14565;48.626;8.978;2023-07-31T15:16:32;22.40;99.90
27026;DHT22;14565;48.626;8.978;2023-07-31T15:18:58;22.50;99.90
27026;DHT22;14565;48.626;8.978;2023-07-31T15:21:23;22.50;99.90
27026;DHT22;14565;48.626;8.978;2023-07-31T15:23:49;22.80;99.90
27026;DHT22;14565;48.626;8.978;2023-07-31T15:26:14;22.90;99.90
27026;DHT22;14565;48.626;8.978;2023-07-31T15:28:40;22.90;99.90
27026;DHT22;14565;48.626;8.978;2023-07-31T15:31:06;23.10;99.90
27026;DHT22;14565;48.626;8.978;2023-07-31T15:33:32;23.10;99.90
27026;DHT22;14565;48.626;8.978;2023-07-31T15:35:58;23.10;99.90
27026;DHT22;14565;48.626;8.978;2023-07-31T15:38:24;22.80;99.90
27026;DHT22;14565;48.626;8.978;2023-07-31T15:40:49;22.80;99.90